| time (UTC) | temp C | wind direction | speed KPH | gust KPH | rain 1hr cm | rain 24hr cm | rain mn cm | humidity % | barometer mb |
| 20260510233105 | 20 | 42 | 6.4 | 19.3 | 0.00 | 0.00 | 0.00 | 44 | 1019.5 |
| 20260510231605 | 20 | 40 | 6.4 | 22.5 | 0.00 | 0.00 | 0.00 | 44 | 1019.4 |
| 20260510230030 | 20 | 39 | 6.4 | 11.3 | 0.00 | 0.00 | 0.00 | 44 | 1019.3 |
| 20260510223031 | 21 | 35 | 4.8 | 16.1 | 0.00 | 0.00 | 0.00 | 43 | 1019.1 |
| 20260510221531 | 21 | 16 | 6.4 | 29.0 | 0.00 | 0.00 | 0.00 | 43 | 1019.2 |
| 20260510220107 | 20 | 19 | 4.8 | 17.7 | 0.00 | 0.00 | 0.00 | 45 | 1019.3 |
| 20260510213146 | 18 | 36 | 4.8 | 20.9 | 0.00 | 0.00 | 0.00 | 51 | 1019.4 |
| 20260510211532 | 19 | 48 | 4.8 | 14.5 | 0.00 | 0.00 | 0.00 | 50 | 1019.2 |
| 20260510210145 | 19 | 50 | 6.4 | 12.9 | 0.00 | 0.00 | 0.00 | 51 | 1018.9 |
| 20260510204531 | 20 | 58 | 3.2 | 6.4 | 0.00 | 0.00 | 0.00 | 52 | 1018.8 |
| 20260510203033 | 19 | 57 | 4.8 | 12.9 | 0.00 | 0.00 | 0.00 | 53 | 1018.9 |
| 20260510201532 | 19 | 42 | 4.8 | 16.1 | 0.00 | 0.00 | 0.00 | 54 | 1018.9 |
| 20260510200033 | 19 | 33 | 4.8 | 11.3 | 0.00 | 0.00 | 0.00 | 54 | 1018.9 |
| 20260510194529 | 19 | 44 | 4.8 | 11.3 | 0.00 | 0.00 | 0.00 | 55 | 1018.9 |
| 20260510193029 | 20 | 52 | 3.2 | 9.7 | 0.00 | 0.00 | 0.00 | 54 | 1019.0 |
| 20260510191530 | 20 | 50 | 3.2 | 9.7 | 0.00 | 0.00 | 0.00 | 54 | 1018.9 |
| 20260510190027 | 20 | 43 | 1.6 | 9.7 | 0.00 | 0.00 | 0.00 | 54 | 1018.9 |
| 20260510184606 | 20 | 52 | 1.6 | 9.7 | 0.00 | 0.00 | 0.00 | 54 | 1018.9 |
| 20260510183107 | 19 | 12 | 0.0 | 6.4 | 0.00 | 0.00 | 0.00 | 57 | 1018.9 |
| 20260510181531 | 18 | 16 | 0.0 | 6.4 | 0.00 | 0.00 | 0.00 | 57 | 1019.0 |
| 20260510180029 | 18 | 2 | 0.0 | 4.8 | 0.00 | 0.00 | 0.00 | 58 | 1019.1 |
| 20260510174604 | 17 | 318 | 0.0 | 3.2 | 0.00 | 0.00 | 0.00 | 59 | 1019.1 |
| 20260510171531 | 17 | 24 | 0.0 | 3.2 | 0.00 | 0.00 | 0.00 | 59 | 1019.2 |
| 20260510170029 | 16 | 39 | 0.0 | 1.6 | 0.00 | 0.00 | 0.00 | 61 | 1019.1 |
| 20260510164531 | 16 | 247 | 0.0 | 0.0 | 0.00 | 0.00 | 0.00 | 62 | 1019.1 |
| 20260510163107 | 15 | 247 | 0.0 | 0.0 | 0.00 | 0.00 | 0.00 | 64 | 1019.2 |
| 20260510161605 | 15 | 247 | 0.0 | 0.0 | 0.00 | 0.00 | 0.00 | 65 | 1019.1 |
| 20260510160031 | 15 | 247 | 0.0 | 0.0 | 0.00 | 0.00 | 0.00 | 65 | 1019.0 |
| 20260510154533 | 14 | 247 | 0.0 | 0.0 | 0.00 | 0.00 | 0.00 | 65 | 1019.1 |
| 20260510153103 | 13 | 247 | 0.0 | 0.0 | 0.00 | 0.00 | 0.00 | 65 | 1019.0 |
| 20260510151606 | 12 | 247 | 0.0 | 0.0 | 0.00 | 0.00 | 0.00 | 66 | 1019.1 |
| 20260510144531 | 11 | 247 | 0.0 | 3.2 | 0.00 | 0.00 | 0.00 | 64 | 1018.8 |
| 20260510143033 | 10 | 230 | 1.6 | 6.4 | 0.00 | 0.00 | 0.00 | 64 | 1018.7 |
| 20260510141531 | 10 | 233 | 3.2 | 6.4 | 0.00 | 0.00 | 0.00 | 65 | 1018.7 |
| 20260510140029 | 10 | 246 | 0.0 | 4.8 | 0.00 | 0.00 | 0.00 | 64 | 1018.7 |
| 20260510134532 | 9 | 234 | 3.2 | 6.4 | 0.00 | 0.00 | 0.00 | 64 | 1018.6 |
| 20260510133033 | 8 | 250 | 3.2 | 6.4 | 0.00 | 0.00 | 0.00 | 65 | 1018.7 |
| 20260510131605 | 8 | 232 | 3.2 | 8.0 | 0.00 | 0.00 | 0.00 | 66 | 1018.6 |
| 20260510130032 | 8 | 237 | 3.2 | 6.4 | 0.00 | 0.00 | 0.00 | 67 | 1018.8 |
| 20260510124531 | 8 | 264 | 1.6 | 4.8 | 0.00 | 0.00 | 0.00 | 68 | 1018.8 |
| 20260510121529 | 7 | 270 | 0.0 | 1.6 | 0.00 | 0.00 | 0.00 | 67 | 1018.6 |
| 20260510120029 | 8 | 269 | 0.0 | 3.2 | 0.00 | 0.00 | 0.00 | 64 | 1018.5 |
| 20260510114530 | 8 | 248 | 1.6 | 4.8 | 0.00 | 0.00 | 0.00 | 64 | 1018.3 |
| 20260510113030 | 8 | 242 | 3.2 | 8.0 | 0.00 | 0.00 | 0.00 | 65 | 1018.4 |
| 20260510111531 | 8 | 242 | 3.2 | 8.0 | 0.00 | 0.00 | 0.00 | 65 | 1018.6 |
| 20260510103106 | 8 | 270 | 0.0 | 1.6 | 0.00 | 0.00 | 0.00 | 63 | 1018.5 |
| 20260510094531 | 10 | 250 | 3.2 | 8.0 | 0.00 | 0.00 | 0.00 | 60 | 1018.5 |
| 20260510093034 | 10 | 225 | 4.8 | 8.0 | 0.00 | 0.00 | 0.00 | 59 | 1018.6 |
| 20260510091529 | 10 | 230 | 4.8 | 9.7 | 0.00 | 0.00 | 0.00 | 59 | 1018.9 |
| 20260510090033 | 10 | 238 | 4.8 | 8.0 | 0.00 | 0.00 | 0.00 | 58 | 1019.0 |
| 20260510084529 | 11 | 242 | 3.2 | 6.4 | 0.00 | 0.00 | 0.00 | 57 | 1019.1 |
| 20260510081529 | 11 | 239 | 3.2 | 6.4 | 0.00 | 0.00 | 0.00 | 56 | 1019.2 |
| 20260510080029 | 11 | 228 | 3.2 | 6.4 | 0.00 | 0.00 | 0.00 | 56 | 1019.2 |
| 20260510074534 | 11 | 230 | 3.2 | 4.8 | 0.00 | 0.00 | 0.00 | 55 | 1019.2 |
| 20260510073030 | 11 | 231 | 3.2 | 4.8 | 0.00 | 0.00 | 0.00 | 54 | 1019.2 |
| 20260510071532 | 12 | 234 | 3.2 | 6.4 | 0.00 | 0.00 | 0.00 | 54 | 1019.2 |
| 20260510070029 | 11 | 239 | 3.2 | 8.0 | 0.00 | 0.00 | 0.00 | 55 | 1019.1 |
| 20260510064603 | 11 | 236 | 3.2 | 8.0 | 0.00 | 0.00 | 0.00 | 56 | 1019.0 |
| 20260510063033 | 12 | 241 | 3.2 | 6.4 | 0.00 | 0.00 | 0.00 | 56 | 1019.0 |
| 20260510061529 | 12 | 243 | 3.2 | 6.4 | 0.00 | 0.00 | 0.00 | 55 | 1019.1 |
| 20260510060031 | 12 | 234 | 3.2 | 4.8 | 0.00 | 0.00 | 0.00 | 55 | 1019.0 |
| 20260510054605 | 12 | 247 | 1.6 | 4.8 | 0.00 | 0.00 | 0.00 | 55 | 1019.0 |
| 20260510053033 | 13 | 247 | 0.0 | 3.2 | 0.00 | 0.00 | 0.00 | 53 | 1018.9 |
| 20260510051529 | 13 | 242 | 1.6 | 4.8 | 0.00 | 0.00 | 0.00 | 49 | 1018.8 |
| 20260510050026 | 14 | 243 | 3.2 | 4.8 | 0.00 | 0.00 | 0.00 | 48 | 1018.8 |
| 20260510043029 | 15 | 216 | 1.6 | 6.4 | 0.00 | 0.00 | 0.00 | 44 | 1018.8 |
| 20260510041531 | 16 | 202 | 0.0 | 3.2 | 0.00 | 0.00 | 0.00 | 44 | 1018.6 |
| 20260510040030 | 16 | 190 | 0.0 | 6.4 | 0.00 | 0.00 | 0.00 | 45 | 1018.5 |
| 20260510033030 | 16 | 135 | 0.0 | 0.0 | 0.00 | 0.00 | 0.00 | 43 | 1018.4 |
| 20260510031603 | 17 | 135 | 0.0 | 0.0 | 0.00 | 0.00 | 0.00 | 40 | 1018.3 |
| 20260510030107 | 18 | 135 | 0.0 | 0.0 | 0.00 | 0.00 | 0.00 | 39 | 1018.2 |
| 20260510024533 | 20 | 135 | 0.0 | 0.0 | 0.00 | 0.00 | 0.00 | 36 | 1018.1 |
| 20260510023028 | 22 | 122 | 0.0 | 0.0 | 0.00 | 0.00 | 0.00 | 27 | 1018.0 |
| 20260510021529 | 26 | 112 | 0.0 | 3.2 | 0.00 | 0.00 | 0.00 | 25 | 1018.1 |
| 20260510020028 | 26 | 112 | 0.0 | 1.6 | 0.00 | 0.00 | 0.00 | 24 | 1018.1 |
| 20260510014532 | 27 | 112 | 0.0 | 3.2 | 0.00 | 0.00 | 0.00 | 22 | 1018.3 |
| 20260510013029 | 27 | 112 | 0.0 | 3.2 | 0.00 | 0.00 | 0.00 | 25 | 1018.4 |
| 20260510011532 | 27 | 112 | 0.0 | 3.2 | 0.00 | 0.00 | 0.00 | 25 | 1018.5 |
| 20260510010030 | 27 | 126 | 0.0 | 3.2 | 0.00 | 0.00 | 0.00 | 23 | 1018.5 |
| 20260510004530 | 28 | 153 | 0.0 | 3.2 | 0.00 | 0.00 | 0.00 | 23 | 1018.5 |
| 20260510003106 | 28 | 127 | 0.0 | 4.8 | 0.00 | 0.00 | 0.00 | 24 | 1018.6 |
| 20260510000106 | 30 | 136 | 0.0 | 4.8 | 0.00 | 0.00 | 0.00 | 23 | 1018.8 |